sensor_id;sensor_type;location;lat;lon;timestamp;temperature;humidity
14901;DHT22;7542;49.078;9.194;2023-08-01T00:00:47;28.60;53.30
14901;DHT22;7542;49.078;9.194;2023-08-01T00:01:49;28.50;53.30
14901;DHT22;7542;49.078;9.194;2023-08-01T00:02:51;28.50;53.30
14901;DHT22;7542;49.078;9.194;2023-08-01T00:03:53;28.60;53.30
14901;DHT22;7542;49.078;9.194;2023-08-01T00:04:55;28.50;53.30
14901;DHT22;7542;49.078;9.194;2023-08-01T00:05:57;28.50;53.30
14901;DHT22;7542;49.078;9.194;2023-08-01T00:06:59;28.50;53.40
14901;DHT22;7542;49.078;9.194;2023-08-01T00:08:01;28.50;53.40
14901;DHT22;7542;49.078;9.194;2023-08-01T00:09:04;28.50;53.40
14901;DHT22;7542;49.078;9.194;2023-08-01T00:10:06;28.60;53.50
14901;DHT22;7542;49.078;9.194;2023-08-01T00:11:09;28.40;53.50
14901;DHT22;7542;49.078;9.194;2023-08-01T00:12:14;28.50;53.60
14901;DHT22;7542;49.078;9.194;2023-08-01T00:13:16;28.40;53.60
14901;DHT22;7542;49.078;9.194;2023-08-01T00:14:19;28.40;53.60
14901;DHT22;7542;49.078;9.194;2023-08-01T00:15:22;28.40;53.50
14901;DHT22;7542;49.078;9.194;2023-08-01T00:16:24;28.40;53.60
14901;DHT22;7542;49.078;9.194;2023-08-01T00:17:26;28.40;53.60
14901;DHT22;7542;49.078;9.194;2023-08-01T00:18:28;28.40;53.60
14901;DHT22;7542;49.078;9.194;2023-08-01T00:19:30;28.40;53.60
14901;DHT22;7542;49.078;9.194;2023-08-01T00:20:32;28.40;53.70
14901;DHT22;7542;49.078;9.194;2023-08-01T00:21:33;28.30;53.70
14901;DHT22;7542;49.078;9.194;2023-08-01T00:22:36;28.30;53.70
14901;DHT22;7542;49.078;9.194;2023-08-01T00:23:38;28.30;53.70
14901;DHT22;7542;49.078;9.194;2023-08-01T00:24:40;28.30;53.80
14901;DHT22;7542;49.078;9.194;2023-08-01T00:25:42;28.00;53.80
14901;DHT22;7542;49.078;9.194;2023-08-01T00:26:44;28.30;53.80
14901;DHT22;7542;49.078;9.194;2023-08-01T00:27:47;28.30;53.80
14901;DHT22;7542;49.078;9.194;2023-08-01T00:28:49;28.30;53.80
14901;DHT22;7542;49.078;9.194;2023-08-01T00:29:51;28.30;53.80
14901;DHT22;7542;49.078;9.194;2023-08-01T00:31:07;28.30;53.80
14901;DHT22;7542;49.078;9.194;2023-08-01T00:32:10;28.30;53.80
14901;DHT22;7542;49.078;9.194;2023-08-01T00:33:12;28.30;53.90
14901;DHT22;7542;49.078;9.194;2023-08-01T00:34:16;28.30;53.90
14901;DHT22;7542;49.078;9.194;2023-08-01T00:35:18;28.30;53.90
14901;DHT22;7542;49.078;9.194;2023-08-01T00:36:20;33.10;56.50
14901;DHT22;7542;49.078;9.194;2023-08-01T00:37:22;28.20;54.00
14901;DHT22;7542;49.078;9.194;2023-08-01T00:38:24;28.20;53.90
14901;DHT22;7542;49.078;9.194;2023-08-01T00:39:27;28.20;54.00
14901;DHT22;7542;49.078;9.194;2023-08-01T00:40:33;28.20;54.00
14901;DHT22;7542;49.078;9.194;2023-08-01T00:41:36;28.10;54.00
14901;DHT22;7542;49.078;9.194;2023-08-01T00:42:38;28.30;53.90
14901;DHT22;7542;49.078;9.194;2023-08-01T00:43:40;28.20;54.00
14901;DHT22;7542;49.078;9.194;2023-08-01T00:44:43;28.20;53.90
14901;DHT22;7542;49.078;9.194;2023-08-01T00:45:45;28.10;54.00
14901;DHT22;7542;49.078;9.194;2023-08-01T00:46:49;28.20;54.00
14901;DHT22;7542;49.078;9.194;2023-08-01T00:47:52;28.20;54.00
14901;DHT22;7542;49.078;9.194;2023-08-01T00:48:57;28.20;54.00
14901;DHT22;7542;49.078;9.194;2023-08-01T00:50:01;28.20;54.10
14901;DHT22;7542;49.078;9.194;2023-08-01T00:51:05;28.10;54.10
14901;DHT22;7542;49.078;9.194;2023-08-01T00:52:10;28.10;54.10
14901;DHT22;7542;49.078;9.194;2023-08-01T00:53:12;28.00;54.20
14901;DHT22;7542;49.078;9.194;2023-08-01T00:54:14;28.10;54.20
14901;DHT22;7542;49.078;9.194;2023-08-01T00:55:17;28.00;54.20
14901;DHT22;7542;49.078;9.194;2023-08-01T00:56:20;28.00;54.20
14901;DHT22;7542;49.078;9.194;2023-08-01T00:57:22;28.00;54.20
14901;DHT22;7542;49.078;9.194;2023-08-01T00:58:25;28.00;54.30
14901;DHT22;7542;49.078;9.194;2023-08-01T00:59:27;28.00;54.30
14901;DHT22;7542;49.078;9.194;2023-08-01T01:00:29;28.00;54.40
14901;DHT22;7542;49.078;9.194;2023-08-01T01:01:31;28.00;54.40
14901;DHT22;7542;49.078;9.194;2023-08-01T01:02:34;28.00;54.50
14901;DHT22;7542;49.078;9.194;2023-08-01T01:03:37;28.00;54.50
14901;DHT22;7542;49.078;9.194;2023-08-01T01:04:41;28.00;54.50
14901;DHT22;7542;49.078;9.194;2023-08-01T01:07:28;27.90;54.10
14901;DHT22;7542;49.078;9.194;2023-08-01T01:08:31;27.90;54.20
14901;DHT22;7542;49.078;9.194;2023-08-01T01:09:33;27.90;54.20
14901;DHT22;7542;49.078;9.194;2023-08-01T01:10:35;27.90;54.20
14901;DHT22;7542;49.078;9.194;2023-08-01T01:11:37;27.90;54.30
14901;DHT22;7542;49.078;9.194;2023-08-01T01:12:39;27.90;54.30
14901;DHT22;7542;49.078;9.194;2023-08-01T01:13:41;27.80;54.40
14901;DHT22;7542;49.078;9.194;2023-08-01T01:14:43;27.80;54.40
14901;DHT22;7542;49.078;9.194;2023-08-01T01:15:45;27.80;54.40
14901;DHT22;7542;49.078;9.194;2023-08-01T01:16:47;27.80;54.50
14901;DHT22;7542;49.078;9.194;2023-08-01T01:17:49;27.80;54.50
14901;DHT22;7542;49.078;9.194;2023-08-01T01:18:51;27.80;54.50
14901;DHT22;7542;49.078;9.194;2023-08-01T01:19:53;27.80;54.60
14901;DHT22;7542;49.078;9.194;2023-08-01T01:20:56;27.70;54.60
14901;DHT22;7542;49.078;9.194;2023-08-01T01:21:58;27.80;54.60
14901;DHT22;7542;49.078;9.194;2023-08-01T01:23:01;27.80;54.60
14901;DHT22;7542;49.078;9.194;2023-08-01T01:24:07;27.80;54.60
14901;DHT22;7542;49.078;9.194;2023-08-01T01:25:11;27.80;54.60
14901;DHT22;7542;49.078;9.194;2023-08-01T01:26:15;27.70;54.60
14901;DHT22;7542;49.078;9.194;2023-08-01T01:27:23;27.70;54.60
14901;DHT22;7542;49.078;9.194;2023-08-01T01:28:26;27.80;54.70
14901;DHT22;7542;49.078;9.194;2023-08-01T01:29:31;27.80;54.70
14901;DHT22;7542;49.078;9.194;2023-08-01T01:30:35;27.60;54.60
14901;DHT22;7542;49.078;9.194;2023-08-01T01:31:38;27.70;54.70
14901;DHT22;7542;49.078;9.194;2023-08-01T01:32:40;27.60;54.60
14901;DHT22;7542;49.078;9.194;2023-08-01T01:33:43;27.70;54.60
14901;DHT22;7542;49.078;9.194;2023-08-01T01:34:45;27.70;54.60
14901;DHT22;7542;49.078;9.194;2023-08-01T01:35:47;27.70;54.70
14901;DHT22;7542;49.078;9.194;2023-08-01T01:36:50;27.70;54.70
14901;DHT22;7542;49.078;9.194;2023-08-01T01:37:52;27.70;54.80
14901;DHT22;7542;49.078;9.194;2023-08-01T01:38:53;27.70;54.80
14901;DHT22;7542;49.078;9.194;2023-08-01T01:39:56;27.60;54.90
14901;DHT22;7542;49.078;9.194;2023-08-01T01:40:58;27.60;54.90
14901;DHT22;7542;49.078;9.194;2023-08-01T01:42:00;27.60;54.90
14901;DHT22;7542;49.078;9.194;2023-08-01T01:43:02;27.60;55.00
14901;DHT22;7542;49.078;9.194;2023-08-01T01:44:04;27.60;55.10
14901;DHT22;7542;49.078;9.194;2023-08-01T01:45:06;27.60;55.20
14901;DHT22;7542;49.078;9.194;2023-08-01T01:46:09;27.60;55.20
14901;DHT22;7542;49.078;9.194;2023-08-01T01:47:11;27.50;55.20
14901;DHT22;7542;49.078;9.194;2023-08-01T01:48:13;27.60;55.20
14901;DHT22;7542;49.078;9.194;2023-08-01T01:49:15;27.70;55.20
14901;DHT22;7542;49.078;9.194;2023-08-01T01:50:17;27.60;55.20
14901;DHT22;7542;49.078;9.194;2023-08-01T01:51:21;27.50;55.20
14901;DHT22;7542;49.078;9.194;2023-08-01T01:52:23;27.60;55.20
14901;DHT22;7542;49.078;9.194;2023-08-01T01:53:25;27.50;55.20
14901;DHT22;7542;49.078;9.194;2023-08-01T01:54:27;27.50;55.20
14901;DHT22;7542;49.078;9.194;2023-08-01T01:55:29;27.50;55.20
14901;DHT22;7542;49.078;9.194;2023-08-01T01:56:31;27.50;55.30
14901;DHT22;7542;49.078;9.194;2023-08-01T01:57:34;23.40;53.60
14901;DHT22;7542;49.078;9.194;2023-08-01T01:58:38;27.40;55.30
14901;DHT22;7542;49.078;9.194;2023-08-01T01:59:40;27.50;55.30
14901;DHT22;7542;49.078;9.194;2023-08-01T02:00:42;27.50;55.20
14901;DHT22;7542;49.078;9.194;2023-08-01T02:01:44;27.50;55.30
14901;DHT22;7542;49.078;9.194;2023-08-01T02:02:46;27.50;55.30
14901;DHT22;7542;49.078;9.194;2023-08-01T02:03:49;27.50;55.30
14901;DHT22;7542;49.078;9.194;2023-08-01T02:04:52;27.50;55.30
14901;DHT22;7542;49.078;9.194;2023-08-01T02:05:54;27.50;55.20
14901;DHT22;7542;49.078;9.194;2023-08-01T02:06:55;27.50;55.20
14901;DHT22;7542;49.078;9.194;2023-08-01T02:07:58;27.50;55.20
14901;DHT22;7542;49.078;9.194;2023-08-01T02:09:00;27.40;55.20
14901;DHT22;7542;49.078;9.194;2023-08-01T02:10:02;27.50;55.30
14901;DHT22;7542;49.078;9.194;2023-08-01T02:11:05;27.50;55.20
14901;DHT22;7542;49.078;9.194;2023-08-01T02:12:07;27.50;55.20
14901;DHT22;7542;49.078;9.194;2023-08-01T02:13:11;27.50;55.20
14901;DHT22;7542;49.078;9.194;2023-08-01T02:14:13;27.50;55.20
14901;DHT22;7542;49.078;9.194;2023-08-01T02:15:15;27.40;55.30
14901;DHT22;7542;49.078;9.194;2023-08-01T02:16:17;27.40;55.20
14901;DHT22;7542;49.078;9.194;2023-08-01T02:17:19;27.30;55.30
14901;DHT22;7542;49.078;9.194;2023-08-01T02:18:21;27.50;55.20
14901;DHT22;7542;49.078;9.194;2023-08-01T02:19:23;27.50;55.20
14901;DHT22;7542;49.078;9.194;2023-08-01T02:20:25;27.50;55.20
14901;DHT22;7542;49.078;9.194;2023-08-01T02:21:28;27.50;55.20
14901;DHT22;7542;49.078;9.194;2023-08-01T02:22:30;27.40;55.20
14901;DHT22;7542;49.078;9.194;2023-08-01T02:23:32;27.30;55.30
14901;DHT22;7542;49.078;9.194;2023-08-01T02:24:37;27.30;55.20
14901;DHT22;7542;49.078;9.194;2023-08-01T02:25:40;27.40;55.20
14901;DHT22;7542;49.078;9.194;2023-08-01T02:26:43;27.40;55.20
14901;DHT22;7542;49.078;9.194;2023-08-01T02:27:44;27.40;55.30
14901;DHT22;7542;49.078;9.194;2023-08-01T02:28:47;27.40;55.30
14901;DHT22;7542;49.078;9.194;2023-08-01T02:29:50;27.40;55.30
14901;DHT22;7542;49.078;9.194;2023-08-01T02:30:52;27.40;55.20
14901;DHT22;7542;49.078;9.194;2023-08-01T02:31:57;27.30;55.30
14901;DHT22;7542;49.078;9.194;2023-08-01T02:32:59;27.40;55.30
14901;DHT22;7542;49.078;9.194;2023-08-01T02:34:02;27.40;55.20
14901;DHT22;7542;49.078;9.194;2023-08-01T02:35:04;27.40;55.30
14901;DHT22;7542;49.078;9.194;2023-08-01T02:36:06;27.40;55.30
14901;DHT22;7542;49.078;9.194;2023-08-01T02:37:09;27.40;55.30
14901;DHT22;7542;49.078;9.194;2023-08-01T02:38:11;27.40;55.30
14901;DHT22;7542;49.078;9.194;2023-08-01T02:39:13;27.40;55.30
14901;DHT22;7542;49.078;9.194;2023-08-01T02:40:15;27.40;55.30
14901;DHT22;7542;49.078;9.194;2023-08-01T02:41:17;27.40;55.30
14901;DHT22;7542;49.078;9.194;2023-08-01T02:42:19;27.40;55.30
14901;DHT22;7542;49.078;9.194;2023-08-01T02:43:21;27.40;55.30
14901;DHT22;7542;49.078;9.194;2023-08-01T02:44:23;27.40;55.50
14901;DHT22;7542;49.078;9.194;2023-08-01T02:45:25;27.40;55.50
14901;DHT22;7542;49.078;9.194;2023-08-01T02:46:27;27.30;55.60
14901;DHT22;7542;49.078;9.194;2023-08-01T02:47:31;27.30;55.60
14901;DHT22;7542;49.078;9.194;2023-08-01T02:48:33;27.30;55.60
14901;DHT22;7542;49.078;9.194;2023-08-01T02:49:37;27.40;55.60
14901;DHT22;7542;49.078;9.194;2023-08-01T02:50:38;27.30;55.60
14901;DHT22;7542;49.078;9.194;2023-08-01T02:51:41;27.30;55.60
14901;DHT22;7542;49.078;9.194;2023-08-01T02:52:43;27.40;55.60
14901;DHT22;7542;49.078;9.194;2023-08-01T02:53:45;27.20;55.60
14901;DHT22;7542;49.078;9.194;2023-08-01T02:54:47;27.30;55.60
14901;DHT22;7542;49.078;9.194;2023-08-01T02:55:49;27.20;55.60
14901;DHT22;7542;49.078;9.194;2023-08-01T02:56:51;27.20;55.60
14901;DHT22;7542;49.078;9.194;2023-08-01T02:57:53;27.30;55.50
14901;DHT22;7542;49.078;9.194;2023-08-01T02:58:55;27.20;55.50
14901;DHT22;7542;49.078;9.194;2023-08-01T02:59:59;27.30;55.60
14901;DHT22;7542;49.078;9.194;2023-08-01T03:01:01;27.20;55.50
14901;DHT22;7542;49.078;9.194;2023-08-01T03:02:09;27.20;55.50
14901;DHT22;7542;49.078;9.194;2023-08-01T03:03:11;27.30;55.50
14901;DHT22;7542;49.078;9.194;2023-08-01T03:04:13;31.80;57.50
14901;DHT22;7542;49.078;9.194;2023-08-01T03:05:16;27.20;55.50
14901;DHT22;7542;49.078;9.194;2023-08-01T03:06:19;27.30;55.60
14901;DHT22;7542;49.078;9.194;2023-08-01T03:07:21;27.30;55.50
14901;DHT22;7542;49.078;9.194;2023-08-01T03:08:23;27.20;55.60
14901;DHT22;7542;49.078;9.194;2023-08-01T03:09:26;27.30;55.50
14901;DHT22;7542;49.078;9.194;2023-08-01T03:10:28;27.20;55.60
14901;DHT22;7542;49.078;9.194;2023-08-01T03:11:38;27.30;55.50
14901;DHT22;7542;49.078;9.194;2023-08-01T03:12:39;27.30;55.50
14901;DHT22;7542;49.078;9.194;2023-08-01T03:13:42;27.20;55.60
14901;DHT22;7542;49.078;9.194;2023-08-01T03:14:44;27.30;55.50
14901;DHT22;7542;49.078;9.194;2023-08-01T03:15:49;27.20;55.60
14901;DHT22;7542;49.078;9.194;2023-08-01T03:16:51;27.20;55.60
14901;DHT22;7542;49.078;9.194;2023-08-01T03:17:53;27.20;55.70
14901;DHT22;7542;49.078;9.194;2023-08-01T03:18:55;27.20;55.70
14901;DHT22;7542;49.078;9.194;2023-08-01T03:19:57;27.30;55.70
14901;DHT22;7542;49.078;9.194;2023-08-01T03:20:59;27.20;55.70
14901;DHT22;7542;49.078;9.194;2023-08-01T03:22:01;27.30;55.70
14901;DHT22;7542;49.078;9.194;2023-08-01T03:23:04;27.20;55.60
14901;DHT22;7542;49.078;9.194;2023-08-01T03:24:06;27.20;55.70
14901;DHT22;7542;49.078;9.194;2023-08-01T03:25:10;27.30;55.70
14901;DHT22;7542;49.078;9.194;2023-08-01T03:26:13;27.20;55.70
14901;DHT22;7542;49.078;9.194;2023-08-01T03:27:17;27.20;55.70
14901;DHT22;7542;49.078;9.194;2023-08-01T03:28:19;27.30;55.80
14901;DHT22;7542;49.078;9.194;2023-08-01T03:29:22;27.20;55.80
14901;DHT22;7542;49.078;9.194;2023-08-01T03:30:25;27.20;55.80
14901;DHT22;7542;49.078;9.194;2023-08-01T03:31:27;27.20;55.80
14901;DHT22;7542;49.078;9.194;2023-08-01T03:32:31;27.20;55.80
14901;DHT22;7542;49.078;9.194;2023-08-01T03:33:33;27.20;55.80
14901;DHT22;7542;49.078;9.194;2023-08-01T03:34:35;27.20;55.80
14901;DHT22;7542;49.078;9.194;2023-08-01T03:35:37;27.20;55.80
14901;DHT22;7542;49.078;9.194;2023-08-01T03:36:39;27.20;55.80
14901;DHT22;7542;49.078;9.194;2023-08-01T03:37:42;27.20;55.90
14901;DHT22;7542;49.078;9.194;2023-08-01T03:38:44;27.20;55.90
14901;DHT22;7542;49.078;9.194;2023-08-01T03:39:46;27.20;55.90
14901;DHT22;7542;49.078;9.194;2023-08-01T03:40:49;27.20;55.90
14901;DHT22;7542;49.078;9.194;2023-08-01T03:41:51;27.20;55.90
14901;DHT22;7542;49.078;9.194;2023-08-01T03:42:53;27.20;55.90
14901;DHT22;7542;49.078;9.194;2023-08-01T03:43:55;27.20;55.90
14901;DHT22;7542;49.078;9.194;2023-08-01T03:44:58;27.10;55.90
14901;DHT22;7542;49.078;9.194;2023-08-01T03:46:00;27.20;55.90
14901;DHT22;7542;49.078;9.194;2023-08-01T03:47:02;27.20;55.90
14901;DHT22;7542;49.078;9.194;2023-08-01T03:48:05;27.10;55.90
14901;DHT22;7542;49.078;9.194;2023-08-01T03:49:07;27.10;55.90
14901;DHT22;7542;49.078;9.194;2023-08-01T03:50:10;27.20;55.90
14901;DHT22;7542;49.078;9.194;2023-08-01T03:51:12;27.10;55.90
14901;DHT22;7542;49.078;9.194;2023-08-01T03:52:17;27.10;55.90
14901;DHT22;7542;49.078;9.194;2023-08-01T03:53:19;26.90;55.40
14901;DHT22;7542;49.078;9.194;2023-08-01T03:54:21;27.10;55.90
14901;DHT22;7542;49.078;9.194;2023-08-01T03:55:23;27.10;55.90
14901;DHT22;7542;49.078;9.194;2023-08-01T03:56:25;27.10;56.00
14901;DHT22;7542;49.078;9.194;2023-08-01T03:57:27;27.20;56.00
14901;DHT22;7542;49.078;9.194;2023-08-01T03:58:29;27.10;56.00
14901;DHT22;7542;49.078;9.194;2023-08-01T03:59:31;27.10;56.00
14901;DHT22;7542;49.078;9.194;2023-08-01T04:00:33;27.10;56.00
14901;DHT22;7542;49.078;9.194;2023-08-01T04:01:35;27.10;56.00
14901;DHT22;7542;49.078;9.194;2023-08-01T04:02:37;27.10;56.00
14901;DHT22;7542;49.078;9.194;2023-08-01T04:03:39;27.10;55.90
14901;DHT22;7542;49.078;9.194;2023-08-01T04:04:42;27.10;55.90
14901;DHT22;7542;49.078;9.194;2023-08-01T04:05:44;27.10;55.90
14901;DHT22;7542;49.078;9.194;2023-08-01T04:06:46;27.10;55.90
14901;DHT22;7542;49.078;9.194;2023-08-01T04:07:48;27.00;55.90
14901;DHT22;7542;49.078;9.194;2023-08-01T04:08:50;27.00;55.90
14901;DHT22;7542;49.078;9.194;2023-08-01T04:09:53;27.00;55.90
14901;DHT22;7542;49.078;9.194;2023-08-01T04:10:55;27.00;55.90
14901;DHT22;7542;49.078;9.194;2023-08-01T04:11:57;27.00;55.90
14901;DHT22;7542;49.078;9.194;2023-08-01T04:12:59;26.90;55.30
14901;DHT22;7542;49.078;9.194;2023-08-01T04:14:01;27.10;55.90
14901;DHT22;7542;49.078;9.194;2023-08-01T04:15:03;27.00;55.80
14901;DHT22;7542;49.078;9.194;2023-08-01T04:16:06;27.10;55.90
14901;DHT22;7542;49.078;9.194;2023-08-01T04:17:08;27.00;55.90
14901;DHT22;7542;49.078;9.194;2023-08-01T04:18:10;27.00;55.90
14901;DHT22;7542;49.078;9.194;2023-08-01T04:19:12;27.00;55.90
14901;DHT22;7542;49.078;9.194;2023-08-01T04:20:15;27.10;55.90
14901;DHT22;7542;49.078;9.194;2023-08-01T04:21:17;27.00;55.90
14901;DHT22;7542;49.078;9.194;2023-08-01T04:22:19;27.00;55.90
14901;DHT22;7542;49.078;9.194;2023-08-01T04:23:21;27.00;55.90
14901;DHT22;7542;49.078;9.194;2023-08-01T04:24:24;22.00;53.60
14901;DHT22;7542;49.078;9.194;2023-08-01T04:25:29;27.20;55.90
14901;DHT22;7542;49.078;9.194;2023-08-01T04:26:31;27.00;55.90
14901;DHT22;7542;49.078;9.194;2023-08-01T04:27:34;27.10;55.80
14901;DHT22;7542;49.078;9.194;2023-08-01T04:28:36;27.00;55.90
14901;DHT22;7542;49.078;9.194;2023-08-01T04:29:38;27.00;55.90
14901;DHT22;7542;49.078;9.194;2023-08-01T04:30:39;27.00;55.90
14901;DHT22;7542;49.078;9.194;2023-08-01T04:31:41;26.90;55.30
14901;DHT22;7542;49.078;9.194;2023-08-01T04:32:44;27.00;55.80
14901;DHT22;7542;49.078;9.194;2023-08-01T04:33:46;27.00;55.90
14901;DHT22;7542;49.078;9.194;2023-08-01T04:34:48;27.00;55.80
14901;DHT22;7542;49.078;9.194;2023-08-01T04:35:50;27.00;55.90
14901;DHT22;7542;49.078;9.194;2023-08-01T04:36:52;27.00;55.90
14901;DHT22;7542;49.078;9.194;2023-08-01T04:37:54;27.00;55.90
14901;DHT22;7542;49.078;9.194;2023-08-01T04:38:56;27.00;55.90
14901;DHT22;7542;49.078;9.194;2023-08-01T04:39:58;27.00;55.90
14901;DHT22;7542;49.078;9.194;2023-08-01T04:41:00;27.00;55.90
14901;DHT22;7542;49.078;9.194;2023-08-01T04:42:04;27.00;55.90
14901;DHT22;7542;49.078;9.194;2023-08-01T04:43:07;27.00;55.90
14901;DHT22;7542;49.078;9.194;2023-08-01T04:44:10;27.00;55.90
14901;DHT22;7542;49.078;9.194;2023-08-01T04:45:12;27.00;55.90
14901;DHT22;7542;49.078;9.194;2023-08-01T04:46:14;27.00;56.00
14901;DHT22;7542;49.078;9.194;2023-08-01T04:47:16;27.00;56.00
14901;DHT22;7542;49.078;9.194;2023-08-01T04:48:18;27.00;56.00
14901;DHT22;7542;49.078;9.194;2023-08-01T04:49:20;27.00;55.90
14901;DHT22;7542;49.078;9.194;2023-08-01T04:50:23;27.00;56.00
14901;DHT22;7542;49.078;9.194;2023-08-01T04:51:25;27.00;56.00
14901;DHT22;7542;49.078;9.194;2023-08-01T04:52:27;27.00;56.00
14901;DHT22;7542;49.078;9.194;2023-08-01T04:53:29;27.00;56.00
14901;DHT22;7542;49.078;9.194;2023-08-01T04:54:31;26.90;55.40
14901;DHT22;7542;49.078;9.194;2023-08-01T04:55:33;26.90;55.50
14901;DHT22;7542;49.078;9.194;2023-08-01T04:56:35;27.00;56.00
14901;DHT22;7542;49.078;9.194;2023-08-01T04:57:37;27.00;56.00
14901;DHT22;7542;49.078;9.194;2023-08-01T04:58:39;27.00;56.00
14901;DHT22;7542;49.078;9.194;2023-08-01T04:59:41;27.00;56.00
14901;DHT22;7542;49.078;9.194;2023-08-01T05:00:43;27.00;56.00
14901;DHT22;7542;49.078;9.194;2023-08-01T05:01:46;27.00;56.00
14901;DHT22;7542;49.078;9.194;2023-08-01T05:02:48;27.00;56.10
14901;DHT22;7542;49.078;9.194;2023-08-01T05:03:50;27.00;56.00
14901;DHT22;7542;49.078;9.194;2023-08-01T05:04:52;27.00;56.00
14901;DHT22;7542;49.078;9.194;2023-08-01T05:05:54;27.00;56.00
14901;DHT22;7542;49.078;9.194;2023-08-01T05:06:56;27.00;56.10
14901;DHT22;7542;49.078;9.194;2023-08-01T05:07:58;27.00;56.10
14901;DHT22;7542;49.078;9.194;2023-08-01T05:09:00;23.80;54.60
14901;DHT22;7542;49.078;9.194;2023-08-01T05:10:02;27.00;56.10
14901;DHT22;7542;49.078;9.194;2023-08-01T05:11:05;27.00;56.10
14901;DHT22;7542;49.078;9.194;2023-08-01T05:12:07;26.90;55.60
14901;DHT22;7542;49.078;9.194;2023-08-01T05:13:10;27.00;56.10
14901;DHT22;7542;49.078;9.194;2023-08-01T05:14:12;26.90;55.60
14901;DHT22;7542;49.078;9.194;2023-08-01T05:15:14;26.90;55.60
14901;DHT22;7542;49.078;9.194;2023-08-01T05:16:17;27.00;56.10
14901;DHT22;7542;49.078;9.194;2023-08-01T05:17:19;26.90;55.70
14901;DHT22;7542;49.078;9.194;2023-08-01T05:18:21;27.00;56.20
14901;DHT22;7542;49.078;9.194;2023-08-01T05:19:23;26.90;55.60
14901;DHT22;7542;49.078;9.194;2023-08-01T05:20:25;27.00;56.20
14901;DHT22;7542;49.078;9.194;2023-08-01T05:21:32;26.90;55.80
14901;DHT22;7542;49.078;9.194;2023-08-01T05:22:34;27.00;56.30
14901;DHT22;7542;49.078;9.194;2023-08-01T05:23:36;26.90;55.80
14901;DHT22;7542;49.078;9.194;2023-08-01T05:24:38;26.90;55.80
14901;DHT22;7542;49.078;9.194;2023-08-01T05:25:40;26.90;55.80
14901;DHT22;7542;49.078;9.194;2023-08-01T05:26:42;24.80;55.20
14901;DHT22;7542;49.078;9.194;2023-08-01T05:27:44;26.90;55.70
14901;DHT22;7542;49.078;9.194;2023-08-01T05:28:46;27.00;56.20
14901;DHT22;7542;49.078;9.194;2023-08-01T05:29:48;26.90;55.60
14901;DHT22;7542;49.078;9.194;2023-08-01T05:30:50;26.90;55.60
14901;DHT22;7542;49.078;9.194;2023-08-01T05:31:52;26.90;55.70
14901;DHT22;7542;49.078;9.194;2023-08-01T05:32:54;26.90;55.80
14901;DHT22;7542;49.078;9.194;2023-08-01T05:33:56;26.90;55.80
14901;DHT22;7542;49.078;9.194;2023-08-01T05:34:58;27.00;56.40
14901;DHT22;7542;49.078;9.194;2023-08-01T05:36:00;26.90;55.80
14901;DHT22;7542;49.078;9.194;2023-08-01T05:37:03;26.90;55.90
14901;DHT22;7542;49.078;9.194;2023-08-01T05:38:05;26.90;55.90
14901;DHT22;7542;49.078;9.194;2023-08-01T05:39:07;27.00;56.40
14901;DHT22;7542;49.078;9.194;2023-08-01T05:40:09;26.90;55.90
14901;DHT22;7542;49.078;9.194;2023-08-01T05:41:12;26.90;56.00
14901;DHT22;7542;49.078;9.194;2023-08-01T05:42:14;26.90;56.00
14901;DHT22;7542;49.078;9.194;2023-08-01T05:43:16;26.90;55.90
14901;DHT22;7542;49.078;9.194;2023-08-01T05:44:18;26.90;56.00
14901;DHT22;7542;49.078;9.194;2023-08-01T05:45:20;26.90;56.00
14901;DHT22;7542;49.078;9.194;2023-08-01T05:46:22;26.90;56.00
14901;DHT22;7542;49.078;9.194;2023-08-01T05:47:24;26.90;56.00
14901;DHT22;7542;49.078;9.194;2023-08-01T05:48:26;26.90;56.00
14901;DHT22;7542;49.078;9.194;2023-08-01T05:49:28;26.90;56.00
14901;DHT22;7542;49.078;9.194;2023-08-01T05:50:31;26.90;56.00
14901;DHT22;7542;49.078;9.194;2023-08-01T05:51:33;26.90;56.00
14901;DHT22;7542;49.078;9.194;2023-08-01T05:52:36;26.90;56.00
14901;DHT22;7542;49.078;9.194;2023-08-01T05:53:39;26.90;56.00
14901;DHT22;7542;49.078;9.194;2023-08-01T05:54:41;26.90;56.00
14901;DHT22;7542;49.078;9.194;2023-08-01T05:55:43;26.90;56.00
14901;DHT22;7542;49.078;9.194;2023-08-01T05:56:45;26.70;56.00
14901;DHT22;7542;49.078;9.194;2023-08-01T05:57:49;26.90;56.00
14901;DHT22;7542;49.078;9.194;2023-08-01T05:58:54;26.90;56.00
14901;DHT22;7542;49.078;9.194;2023-08-01T05:59:56;26.80;56.00
14901;DHT22;7542;49.078;9.194;2023-08-01T06:00:58;26.80;56.00
14901;DHT22;7542;49.078;9.194;2023-08-01T06:02:00;26.90;56.00
14901;DHT22;7542;49.078;9.194;2023-08-01T06:03:02;26.90;56.10
14901;DHT22;7542;49.078;9.194;2023-08-01T06:04:04;26.90;56.10
14901;DHT22;7542;49.078;9.194;2023-08-01T06:05:06;26.70;56.20
14901;DHT22;7542;49.078;9.194;2023-08-01T06:06:08;26.80;56.20
14901;DHT22;7542;49.078;9.194;2023-08-01T06:07:10;26.80;56.40
14901;DHT22;7542;49.078;9.194;2023-08-01T06:08:12;26.90;56.30
14901;DHT22;7542;49.078;9.194;2023-08-01T06:09:17;27.00;56.90
14901;DHT22;7542;49.078;9.194;2023-08-01T06:10:19;26.80;56.40
14901;DHT22;7542;49.078;9.194;2023-08-01T06:11:21;26.80;56.40
14901;DHT22;7542;49.078;9.194;2023-08-01T06:12:23;26.90;56.40
14901;DHT22;7542;49.078;9.194;2023-08-01T06:13:25;26.80;56.50
14901;DHT22;7542;49.078;9.194;2023-08-01T06:14:27;26.80;56.40
14901;DHT22;7542;49.078;9.194;2023-08-01T06:15:29;26.80;56.50
14901;DHT22;7542;49.078;9.194;2023-08-01T06:16:31;26.80;56.50
14901;DHT22;7542;49.078;9.194;2023-08-01T06:17:33;27.00;57.10
14901;DHT22;7542;49.078;9.194;2023-08-01T06:18:35;26.90;56.50
14901;DHT22;7542;49.078;9.194;2023-08-01T06:19:38;26.80;56.50
14901;DHT22;7542;49.078;9.194;2023-08-01T06:20:40;26.80;56.50
14901;DHT22;7542;49.078;9.194;2023-08-01T06:21:42;26.80;56.60
14901;DHT22;7542;49.078;9.194;2023-08-01T06:22:44;26.80;56.60
14901;DHT22;7542;49.078;9.194;2023-08-01T06:23:46;26.80;56.60
14901;DHT22;7542;49.078;9.194;2023-08-01T06:24:48;26.80;56.60
14901;DHT22;7542;49.078;9.194;2023-08-01T06:25:50;26.80;56.60
14901;DHT22;7542;49.078;9.194;2023-08-01T06:26:52;26.80;56.70
14901;DHT22;7542;49.078;9.194;2023-08-01T06:27:54;26.80;56.80
14901;DHT22;7542;49.078;9.194;2023-08-01T06:28:56;26.80;56.80
14901;DHT22;7542;49.078;9.194;2023-08-01T06:29:58;26.80;56.90
14901;DHT22;7542;49.078;9.194;2023-08-01T06:31:00;26.80;56.90
14901;DHT22;7542;49.078;9.194;2023-08-01T06:32:02;26.80;57.20
14901;DHT22;7542;49.078;9.194;2023-08-01T06:33:04;26.80;57.30
14901;DHT22;7542;49.078;9.194;2023-08-01T06:34:07;22.60;55.80
14901;DHT22;7542;49.078;9.194;2023-08-01T06:35:09;26.80;57.20
14901;DHT22;7542;49.078;9.194;2023-08-01T06:36:11;26.80;57.40
14901;DHT22;7542;49.078;9.194;2023-08-01T06:37:14;26.80;57.40
14901;DHT22;7542;49.078;9.194;2023-08-01T06:38:16;26.80;57.60
14901;DHT22;7542;49.078;9.194;2023-08-01T06:39:18;26.80;57.70
14901;DHT22;7542;49.078;9.194;2023-08-01T06:40:20;26.80;57.70
14901;DHT22;7542;49.078;9.194;2023-08-01T06:41:22;26.70;57.70
14901;DHT22;7542;49.078;9.194;2023-08-01T06:42:24;26.80;57.70